Time;durP1;ratioP1;P1;durP2;ratioP2;P2;SDS_P1;SDS_P2;PMS_P1;PMS_P2;Temp;Humidity;BMP_temperature;BMP_pressure;BME280_temperature;BME280_humidity;BME280_pressure;Samples;Min_cycle;Max_cycle;Signal;HPM_P1;HPM_P2
2023/06/04 00:02:13;;;;;;;6.68;3.22;;;12.80;99.90;;;;;;5048365;28;20043;-75
2023/06/04 00:04:40;;;;;;;6.90;2.83;;;12.70;99.90;;;;;;5037356;28;20026;-75
2023/06/04 00:07:06;;;;;;;6.60;3.45;;;12.70;99.90;;;;;;5039270;28;20401;-76
2023/06/04 00:09:31;;;;;;;6.00;2.85;;;12.70;99.90;;;;;;5039560;28;20034;-80
2023/06/04 00:11:57;;;;;;;9.27;3.20;;;12.70;99.90;;;;;;5041041;28;20057;-75
2023/06/04 00:14:23;;;;;;;6.10;2.85;;;12.70;99.90;;;;;;5041275;28;20022;-76
2023/06/04 00:16:49;;;;;;;6.78;3.00;;;12.60;99.90;;;;;;5041531;28;20033;-75
2023/06/04 00:19:15;;;;;;;8.30;2.97;;;12.60;99.90;;;;;;5041926;28;20033;-74
2023/06/04 00:21:40;;;;;;;7.65;3.13;;;12.60;99.90;;;;;;5019705;28;20034;-79
2023/06/04 00:24:06;;;;;;;9.25;3.28;;;12.60;99.90;;;;;;5022233;28;20048;-78
2023/06/04 00:26:33;;;;;;;5.65;2.88;;;12.50;99.90;;;;;;5040416;28;20025;-74
2023/06/04 00:29:00;;;;;;;7.20;3.25;;;12.50;99.90;;;;;;5039875;28;20018;-76
2023/06/04 00:31:26;;;;;;;6.97;3.03;;;12.50;99.90;;;;;;5054837;28;20116;-77
2023/06/04 00:33:51;;;;;;;6.38;2.95;;;12.50;99.90;;;;;;5065601;28;20045;-73
2023/06/04 00:36:17;;;;;;;7.93;3.80;;;12.50;99.90;;;;;;5058441;28;20454;-76
2023/06/04 00:38:43;;;;;;;6.95;2.70;;;12.40;99.90;;;;;;5060200;28;20135;-74
2023/06/04 00:41:09;;;;;;;5.05;2.90;;;12.40;99.90;;;;;;5071266;28;20033;-78
2023/06/04 00:43:35;;;;;;;6.47;3.15;;;12.40;99.90;;;;;;5043947;28;20429;-76
2023/06/04 00:46:03;;;;;;;7.43;3.10;;;12.40;99.90;;;;;;5064130;28;20025;-76
2023/06/04 00:48:30;;;;;;;10.32;3.22;;;12.30;99.90;;;;;;5069534;28;20028;-74
2023/06/04 00:50:56;;;;;;;8.40;3.30;;;12.30;99.90;;;;;;5075379;28;20079;-75
2023/06/04 00:53:24;;;;;;;7.75;3.15;;;12.30;99.90;;;;;;5070117;28;20024;-75
2023/06/04 00:55:50;;;;;;;6.10;3.15;;;12.30;99.90;;;;;;5064510;28;20020;-76
2023/06/04 01:01:43;;;;;;;7.55;3.30;;;12.30;99.90;;;;;;5028767;28;20090;-75
2023/06/04 01:04:35;;;;;;;7.32;3.20;;;12.20;99.90;;;;;;5070019;28;20025;-78
2023/06/04 01:07:04;;;;;;;6.68;2.97;;;12.20;99.90;;;;;;5042626;28;20039;-75
2023/06/04 01:09:30;;;;;;;11.55;3.42;;;12.20;99.90;;;;;;5069122;28;20123;-74
2023/06/04 01:12:01;;;;;;;8.73;3.15;;;12.20;99.90;;;;;;5067106;28;20025;-73
2023/06/04 01:14:27;;;;;;;8.70;3.42;;;12.20;99.90;;;;;;5065262;28;20359;-74
2023/06/04 01:17:04;;;;;;;9.95;3.50;;;12.10;99.90;;;;;;5074555;28;20464;-75
2023/06/04 01:19:59;;;;;;;7.82;3.47;;;12.20;99.90;;;;;;5072104;28;20450;-74
2023/06/04 01:22:42;;;;;;;9.75;3.60;;;12.10;99.90;;;;;;5048286;28;20059;-72
2023/06/04 01:25:31;;;;;;;8.27;3.80;;;12.10;99.90;;;;;;5070611;28;20029;-74
2023/06/04 01:27:57;;;;;;;8.30;3.90;;;12.10;99.90;;;;;;5064626;28;20031;-79
2023/06/04 01:30:25;;;;;;;7.72;3.85;;;12.10;99.90;;;;;;5053519;28;20051;-75
2023/06/04 01:32:53;;;;;;;8.18;3.50;;;12.00;99.90;;;;;;5049855;28;20033;-75
2023/06/04 01:35:20;;;;;;;8.25;3.60;;;12.00;99.90;;;;;;5046121;28;20109;-75
2023/06/04 01:37:46;;;;;;;10.85;4.07;;;12.00;99.90;;;;;;5034266;28;20033;-74
2023/06/04 01:40:12;;;;;;;6.70;3.60;;;12.00;99.90;;;;;;5045000;28;20116;-74
2023/06/04 01:42:38;;;;;;;11.20;4.22;;;12.00;99.90;;;;;;5050287;28;20533;-75
2023/06/04 01:45:04;;;;;;;9.68;4.38;;;12.00;99.90;;;;;;5050448;28;20038;-74
2023/06/04 01:47:29;;;;;;;8.07;3.40;;;12.00;99.90;;;;;;5052914;28;20044;-74
2023/06/04 01:49:55;;;;;;;10.60;4.03;;;12.00;99.90;;;;;;5052174;28;20392;-74
2023/06/04 01:52:21;;;;;;;10.90;4.38;;;11.90;99.90;;;;;;5042973;28;20033;-76
2023/06/04 01:54:52;;;;;;;10.95;3.90;;;11.90;99.90;;;;;;5049170;28;20021;-76
2023/06/04 01:57:19;;;;;;;6.40;3.95;;;11.90;99.90;;;;;;5034706;28;20159;-74
2023/06/04 01:59:44;;;;;;;11.00;4.55;;;11.90;99.90;;;;;;5045361;28;20043;-76
2023/06/04 02:02:10;;;;;;;9.27;4.25;;;11.90;99.90;;;;;;5038361;28;20033;-74
2023/06/04 02:04:36;;;;;;;12.27;4.22;;;11.80;99.90;;;;;;5049463;28;20044;-76
2023/06/04 02:07:02;;;;;;;9.38;4.00;;;11.80;99.90;;;;;;5037665;28;20052;-74
2023/06/04 02:09:28;;;;;;;9.27;4.53;;;11.80;99.90;;;;;;5049746;28;20033;-77
2023/06/04 02:11:53;;;;;;;10.23;4.22;;;11.80;99.90;;;;;;5053126;28;20384;-73
2023/06/04 02:14:19;;;;;;;11.52;4.90;;;11.70;99.90;;;;;;5047246;28;20418;-76
2023/06/04 02:16:50;;;;;;;14.40;4.80;;;11.70;99.90;;;;;;5037102;28;20446;-76
2023/06/04 02:19:18;;;;;;;11.52;4.65;;;11.70;99.90;;;;;;5049363;28;20473;-73
2023/06/04 02:21:44;;;;;;;11.30;5.18;;;11.70;99.90;;;;;;5041195;28;20479;-73
2023/06/04 02:24:09;;;;;;;12.90;4.95;;;11.60;99.90;;;;;;5045914;28;20025;-74
2023/06/04 02:26:35;;;;;;;11.98;4.85;;;11.70;99.90;;;;;;5050053;28;20057;-74
2023/06/04 02:29:01;;;;;;;11.55;5.25;;;11.60;99.90;;;;;;5037216;28;20049;-74
2023/06/04 02:31:27;;;;;;;14.73;5.55;;;11.60;99.90;;;;;;5062495;28;20056;-74
2023/06/04 02:33:53;;;;;;;12.35;5.45;;;11.60;99.90;;;;;;5072984;28;20051;-75
2023/06/04 02:36:18;;;;;;;12.82;5.55;;;11.50;99.90;;;;;;5059944;28;20020;-75
2023/06/04 02:38:44;;;;;;;15.10;5.72;;;11.50;99.90;;;;;;5069966;28;20032;-74
2023/06/04 02:41:09;;;;;;;12.35;5.35;;;11.50;99.90;;;;;;5056543;28;20077;-74
2023/06/04 02:43:36;;;;;;;12.13;5.65;;;11.50;99.90;;;;;;5065299;28;20021;-74
2023/06/04 02:46:01;;;;;;;13.45;5.57;;;11.50;99.90;;;;;;5053105;28;20025;-74
2023/06/04 02:48:27;;;;;;;13.20;5.60;;;11.50;99.90;;;;;;5059481;28;20025;-75
2023/06/04 02:50:52;;;;;;;13.05;5.90;;;11.40;99.90;;;;;;5071674;28;20415;-75
2023/06/04 02:53:18;;;;;;;13.13;5.60;;;11.40;99.90;;;;;;5069719;28;20531;-75
2023/06/04 02:55:43;;;;;;;14.10;5.95;;;11.40;99.90;;;;;;5067054;28;20385;-75
2023/06/04 02:58:09;;;;;;;16.35;6.32;;;11.40;99.90;;;;;;5064708;28;20103;-75
2023/06/04 03:00:35;;;;;;;14.90;6.28;;;11.40;99.90;;;;;;5070141;28;20094;-75
2023/06/04 03:03:01;;;;;;;11.80;5.88;;;11.40;99.90;;;;;;5053786;28;20044;-75
2023/06/04 03:05:27;;;;;;;14.75;6.35;;;11.30;99.90;;;;;;5070404;28;20099;-75
2023/06/04 03:07:53;;;;;;;15.55;6.03;;;11.30;99.90;;;;;;5072225;28;20033;-75
2023/06/04 03:10:19;;;;;;;14.63;6.47;;;11.30;99.90;;;;;;5069098;28;20798;-73
2023/06/04 03:12:45;;;;;;;14.40;5.75;;;11.30;99.90;;;;;;5058910;28;20021;-75
2023/06/04 03:15:11;;;;;;;16.90;6.63;;;11.30;99.90;;;;;;5053212;28;20473;-75
2023/06/04 03:17:37;;;;;;;12.57;6.70;;;11.30;99.90;;;;;;5065014;28;20025;-79
2023/06/04 03:20:04;;;;;;;17.02;7.30;;;11.30;99.90;;;;;;5063864;28;20028;-75
2023/06/04 03:22:30;;;;;;;16.92;6.57;;;11.30;99.90;;;;;;5071190;28;20048;-76
2023/06/04 03:24:56;;;;;;;16.90;6.78;;;11.30;99.90;;;;;;5053764;28;20037;-76
2023/06/04 03:27:21;;;;;;;17.20;6.68;;;11.30;99.90;;;;;;5057961;28;20449;-78
2023/06/04 03:29:48;;;;;;;15.73;6.50;;;11.30;99.90;;;;;;5061673;28;20167;-79
2023/06/04 03:32:15;;;;;;;14.10;7.07;;;11.30;99.90;;;;;;5044563;28;20500;-78
2023/06/04 03:34:41;;;;;;;16.35;7.07;;;11.30;99.90;;;;;;5036044;28;20022;-74
2023/06/04 03:37:06;;;;;;;17.52;7.22;;;11.30;99.90;;;;;;5048554;28;20405;-73
2023/06/04 03:39:32;;;;;;;15.52;7.43;;;11.30;99.90;;;;;;5037018;28;20198;-75
2023/06/04 03:41:57;;;;;;;18.42;7.50;;;11.30;99.90;;;;;;5051151;28;20029;-76
2023/06/04 03:44:23;;;;;;;17.25;7.40;;;11.30;99.90;;;;;;5032970;28;20034;-74
2023/06/04 03:46:49;;;;;;;16.63;7.50;;;11.30;99.90;;;;;;5031530;28;20029;-73
2023/06/04 03:49:17;;;;;;;21.48;8.10;;;11.30;99.90;;;;;;5033565;28;20057;-74
2023/06/04 03:51:43;;;;;;;16.17;7.80;;;11.30;99.90;;;;;;5033387;28;20228;-74
2023/06/04 03:54:08;;;;;;;17.23;7.43;;;11.30;99.90;;;;;;5033070;28;20038;-74
2023/06/04 03:56:35;;;;;;;15.77;7.60;;;11.30;99.90;;;;;;5033748;28;20028;-74
2023/06/04 03:59:00;;;;;;;18.42;8.88;;;11.40;99.90;;;;;;5049426;28;20100;-73
2023/06/04 04:01:26;;;;;;;16.35;7.97;;;11.40;99.90;;;;;;5050703;28;20125;-73
2023/06/04 04:03:52;;;;;;;20.08;8.15;;;11.40;99.90;;;;;;5032822;28;20075;-73
2023/06/04 04:06:19;;;;;;;19.58;8.50;;;11.40;99.90;;;;;;5032509;28;20033;-74
2023/06/04 04:08:45;;;;;;;16.45;7.68;;;11.50;99.90;;;;;;5050769;28;20096;-73
2023/06/04 04:11:12;;;;;;;18.30;7.68;;;11.50;99.90;;;;;;5052607;28;20104;-74
2023/06/04 04:13:37;;;;;;;19.50;7.78;;;11.50;99.90;;;;;;5054518;28;20025;-75
2023/06/04 04:16:03;;;;;;;19.63;8.40;;;11.60;99.90;;;;;;5053260;28;20405;-74
2023/06/04 04:18:33;;;;;;;21.38;8.40;;;11.60;99.90;;;;;;5053464;28;20059;-73
2023/06/04 04:20:58;;;;;;;15.63;7.13;;;11.60;99.90;;;;;;5052184;28;20079;-73
2023/06/04 04:23:25;;;;;;;18.80;7.05;;;11.70;99.90;;;;;;5054276;28;20025;-74
2023/06/04 04:25:51;;;;;;;19.90;7.63;;;11.70;99.90;;;;;;5054107;28;20028;-74
2023/06/04 04:28:17;;;;;;;18.58;7.63;;;11.70;99.90;;;;;;5054696;28;20032;-78
2023/06/04 04:30:44;;;;;;;14.90;6.85;;;11.80;99.90;;;;;;5054465;28;20512;-76
2023/06/04 04:33:10;;;;;;;19.55;7.80;;;11.90;99.90;;;;;;5053557;28;20033;-76
2023/06/04 04:35:36;;;;;;;17.48;8.13;;;11.90;99.90;;;;;;5037841;28;20021;-74
2023/06/04 04:38:03;;;;;;;16.10;7.30;;;12.00;99.90;;;;;;5036359;28;20071;-74
2023/06/04 04:40:29;;;;;;;17.52;7.72;;;12.00;99.90;;;;;;5036943;28;20032;-76
2023/06/04 04:42:55;;;;;;;14.00;6.35;;;12.10;99.90;;;;;;5037569;28;20113;-77
2023/06/04 04:45:21;;;;;;;16.35;6.53;;;12.20;99.90;;;;;;5036915;28;20025;-72
2023/06/04 04:47:47;;;;;;;12.10;6.13;;;12.20;99.90;;;;;;5036659;28;20390;-74
2023/06/04 04:50:13;;;;;;;20.92;7.40;;;12.30;99.90;;;;;;5036659;28;20036;-77
2023/06/04 04:52:38;;;;;;;17.35;7.00;;;12.30;99.90;;;;;;5036810;28;20026;-73
2023/06/04 04:55:04;;;;;;;16.20;6.90;;;12.40;99.90;;;;;;5035030;28;20541;-74
2023/06/04 04:57:30;;;;;;;13.05;6.22;;;12.50;99.90;;;;;;5036542;28;20028;-78
2023/06/04 04:59:55;;;;;;;14.90;5.50;;;12.60;99.90;;;;;;5027408;28;20029;-74
2023/06/04 05:02:21;;;;;;;13.30;5.97;;;12.70;99.90;;;;;;5042822;28;20371;-75
2023/06/04 05:04:47;;;;;;;17.50;5.30;;;12.80;99.90;;;;;;5036612;28;20108;-74
2023/06/04 05:07:12;;;;;;;15.13;6.25;;;12.80;99.90;;;;;;5036668;28;20473;-74
2023/06/04 05:09:38;;;;;;;15.73;5.32;;;13.00;99.90;;;;;;5036229;28;20060;-74
2023/06/04 05:12:03;;;;;;;19.08;6.28;;;13.10;99.90;;;;;;5018582;28;20072;-76
2023/06/04 05:14:29;;;;;;;15.13;5.70;;;13.20;99.90;;;;;;5036221;28;20029;-76
2023/06/04 05:16:58;;;;;;;15.52;5.20;;;13.30;99.90;;;;;;5037514;28;20361;-74
2023/06/04 05:19:23;;;;;;;17.58;5.22;;;13.50;99.90;;;;;;5036178;28;20446;-77
2023/06/04 05:21:49;;;;;;;13.93;5.15;;;13.60;99.90;;;;;;5035730;28;20108;-74
2023/06/04 05:24:15;;;;;;;14.52;5.78;;;13.80;99.90;;;;;;5036130;28;20025;-75
2023/06/04 05:26:41;;;;;;;11.80;5.05;;;14.00;99.90;;;;;;5045953;28;20078;-75
2023/06/04 05:29:07;;;;;;;14.55;5.65;;;14.20;99.90;;;;;;5036202;28;20139;-77
2023/06/04 05:31:33;;;;;;;12.15;4.20;;;14.50;99.90;;;;;;5035711;28;20448;-74
2023/06/04 05:34:01;;;;;;;13.50;4.88;;;14.90;99.90;;;;;;5042285;28;20028;-74
2023/06/04 05:36:27;;;;;;;9.80;3.50;;;15.40;99.90;;;;;;5041836;28;20021;-74
2023/06/04 05:38:56;;;;;;;11.60;4.45;;;15.90;99.90;;;;;;5033458;28;20032;-74
2023/06/04 05:41:26;;;;;;;12.23;4.20;;;16.40;99.90;;;;;;5030768;28;20433;-74
2023/06/04 05:43:52;;;;;;;9.80;3.67;;;17.00;99.90;;;;;;5054110;28;20033;-75
2023/06/04 05:46:18;;;;;;;11.02;3.50;;;17.70;99.90;;;;;;5043003;28;20021;-78
2023/06/04 05:48:43;;;;;;;8.60;3.08;;;18.20;99.90;;;;;;5032585;28;20025;-75
2023/06/04 05:51:09;;;;;;;9.60;3.00;;;18.80;99.90;;;;;;5038461;28;20083;-74
2023/06/04 05:53:35;;;;;;;9.65;3.28;;;19.40;99.90;;;;;;5048799;28;20040;-74
2023/06/04 05:56:00;;;;;;;9.40;3.08;;;19.70;99.90;;;;;;5044566;28;20445;-77
2023/06/04 05:58:26;;;;;;;10.85;2.95;;;20.30;99.90;;;;;;5040400;28;20037;-78
2023/06/04 06:00:52;;;;;;;9.13;3.05;;;20.90;99.90;;;;;;5050638;28;20025;-75
2023/06/04 06:03:18;;;;;;;11.13;3.00;;;21.50;99.90;;;;;;5037606;28;20028;-75
2023/06/04 06:05:44;;;;;;;9.55;2.90;;;21.80;99.90;;;;;;5047075;28;20017;-75
2023/06/04 06:08:10;;;;;;;5.63;2.65;;;22.00;99.40;;;;;;5045359;28;20021;-75
2023/06/04 06:10:36;;;;;;;8.63;2.70;;;22.10;99.00;;;;;;5039686;28;20060;-74
2023/06/04 06:13:02;;;;;;;11.57;3.22;;;22.10;98.80;;;;;;5050930;28;20028;-75
2023/06/04 06:15:28;;;;;;;10.07;3.28;;;22.30;98.50;;;;;;5039322;28;20033;-74
2023/06/04 06:17:54;;;;;;;9.95;2.83;;;22.50;98.00;;;;;;5045562;28;20053;-74
2023/06/04 06:20:20;;;;;;;7.18;3.05;;;22.90;97.60;;;;;;5046826;28;20044;-77
2023/06/04 06:22:46;;;;;;;13.10;3.15;;;23.30;96.80;;;;;;5038716;28;20038;-75
2023/06/04 06:25:15;;;;;;;7.40;3.20;;;23.50;96.60;;;;;;5050874;28;20025;-74
2023/06/04 06:27:41;;;;;;;8.25;3.00;;;23.70;96.10;;;;;;5041897;28;20112;-74
2023/06/04 06:30:08;;;;;;;8.20;3.13;;;23.90;95.70;;;;;;5044983;28;20061;-75
2023/06/04 06:32:35;;;;;;;6.20;2.72;;;24.20;95.60;;;;;;5048177;28;20104;-75
2023/06/04 06:35:01;;;;;;;10.98;2.92;;;24.60;94.70;;;;;;5038761;28;20152;-75
2023/06/04 06:37:26;;;;;;;10.55;2.83;;;24.80;94.40;;;;;;5037935;28;20049;-77
2023/06/04 06:39:52;;;;;;;6.88;2.80;;;24.90;94.10;;;;;;5055387;28;20096;-74
2023/06/04 06:42:18;;;;;;;8.88;3.28;;;24.90;93.60;;;;;;5044197;28;20504;-77
2023/06/04 06:44:47;;;;;;;10.40;2.95;;;24.70;93.40;;;;;;5035031;28;20033;-74
2023/06/04 06:47:13;;;;;;;10.43;3.17;;;24.50;93.60;;;;;;5038075;28;20024;-75
2023/06/04 06:49:41;;;;;;;7.35;2.97;;;24.70;93.30;;;;;;5047097;28;20029;-75
2023/06/04 06:52:07;;;;;;;9.13;2.78;;;24.80;93.10;;;;;;5044076;28;20028;-75
2023/06/04 06:54:33;;;;;;;8.85;2.75;;;24.90;93.00;;;;;;5039470;28;20026;-74
2023/06/04 06:56:58;;;;;;;7.15;2.47;;;24.90;92.80;;;;;;5034228;28;20034;-75
2023/06/04 06:59:25;;;;;;;10.15;2.25;;;25.10;92.80;;;;;;5048349;28;20048;-75
2023/06/04 07:01:50;;;;;;;8.75;2.95;;;25.40;92.30;;;;;;5041570;28;20493;-76
2023/06/04 07:04:16;;;;;;;9.35;3.00;;;25.20;92.30;;;;;;5037022;28;20029;-75
2023/06/04 07:06:42;;;;;;;9.60;2.58;;;25.10;92.20;;;;;;5047945;28;20032;-75
2023/06/04 07:09:08;;;;;;;7.85;2.40;;;25.20;91.80;;;;;;5036513;28;20033;-75
2023/06/04 07:11:33;;;;;;;8.38;2.45;;;25.30;91.70;;;;;;5034756;28;20034;-74
2023/06/04 07:14:01;;;;;;;5.65;2.45;;;25.50;91.50;;;;;;5033670;28;20416;-75
2023/06/04 07:16:27;;;;;;;8.50;2.30;;;25.70;91.20;;;;;;5033492;28;20049;-76
2023/06/04 07:18:52;;;;;;;6.53;2.60;;;25.70;91.00;;;;;;5033781;28;20130;-74
2023/06/04 07:21:20;;;;;;;11.50;3.08;;;25.90;90.60;;;;;;5032978;28;20095;-74
2023/06/04 07:23:49;;;;;;;9.77;3.33;;;26.30;90.20;;;;;;5033503;28;20030;-77
2023/06/04 07:26:15;;;;;;;7.97;2.63;;;26.60;89.50;;;;;;5040217;28;20028;-76
2023/06/04 07:28:41;;;;;;;6.28;2.20;;;26.80;89.30;;;;;;5034560;28;20346;-75
2023/06/04 07:31:06;;;;;;;6.63;2.50;;;26.80;87.90;;;;;;5033172;28;20057;-77
2023/06/04 07:33:32;;;;;;;6.05;2.35;;;26.60;87.60;;;;;;5020511;28;20025;-76
2023/06/04 07:35:57;;;;;;;7.25;2.88;;;26.40;88.10;;;;;;5052792;28;20033;-75
2023/06/04 07:38:23;;;;;;;9.32;2.20;;;26.30;88.10;;;;;;5052653;28;20105;-76
2023/06/04 07:40:48;;;;;;;8.27;2.45;;;26.30;86.20;;;;;;5051740;28;20072;-75
2023/06/04 07:43:14;;;;;;;9.35;2.28;;;26.10;86.50;;;;;;5037802;28;20536;-75
2023/06/04 07:45:40;;;;;;;8.65;2.15;;;26.00;86.70;;;;;;5018852;28;20034;-76
2023/06/04 07:48:05;;;;;;;7.13;2.88;;;26.20;87.30;;;;;;5039711;28;20025;-76
2023/06/04 07:50:31;;;;;;;7.68;2.53;;;26.40;87.30;;;;;;5039227;28;20059;-77
2023/06/04 07:52:56;;;;;;;6.90;2.50;;;26.20;87.70;;;;;;5039267;28;20048;-77
2023/06/04 07:55:22;;;;;;;6.10;2.35;;;25.80;88.20;;;;;;5039506;28;20036;-77
2023/06/04 07:57:48;;;;;;;8.80;2.60;;;25.10;88.50;;;;;;5039937;28;20034;-74
2023/06/04 08:00:14;;;;;;;7.07;2.88;;;24.50;89.40;;;;;;5039124;28;20029;-75
2023/06/04 08:02:40;;;;;;;4.90;2.63;;;24.30;90.00;;;;;;5039330;28;20041;-78
2023/06/04 08:05:05;;;;;;;9.50;2.58;;;24.30;90.10;;;;;;5039438;28;20030;-79
2023/06/04 08:07:31;;;;;;;6.18;2.47;;;24.30;88.60;;;;;;5039217;28;20100;-77
2023/06/04 08:09:57;;;;;;;10.32;2.55;;;24.10;88.30;;;;;;5039111;28;20474;-75
2023/06/04 08:12:22;;;;;;;6.13;2.10;;;24.20;89.40;;;;;;5039267;28;20030;-76
2023/06/04 08:14:50;;;;;;;8.35;2.50;;;24.50;88.50;;;;;;5039505;28;20025;-75
2023/06/04 08:17:15;;;;;;;7.28;2.15;;;24.70;87.30;;;;;;5039399;28;20076;-76
2023/06/04 08:19:41;;;;;;;10.63;2.38;;;25.00;85.90;;;;;;5038937;28;20033;-75
2023/06/04 08:22:09;;;;;;;6.93;2.40;;;25.30;84.70;;;;;;5039141;28;20492;-77
2023/06/04 08:24:34;;;;;;;6.80;2.13;;;25.70;84.70;;;;;;5039176;28;20025;-74
2023/06/04 08:27:00;;;;;;;9.77;2.25;;;26.40;83.20;;;;;;5038777;28;20048;-76
2023/06/04 08:29:26;;;;;;;5.88;2.05;;;27.00;82.20;;;;;;5040830;28;20032;-75
2023/06/04 08:31:51;;;;;;;5.10;1.70;;;27.60;80.50;;;;;;5059881;28;20467;-73
2023/06/04 08:34:18;;;;;;;6.60;1.63;;;28.40;78.20;;;;;;5032848;28;20496;-75
2023/06/04 08:36:44;;;;;;;6.70;1.63;;;28.80;75.90;;;;;;5044389;28;20037;-75
2023/06/04 08:39:11;;;;;;;5.18;2.00;;;29.50;75.40;;;;;;5049079;28;20064;-73
2023/06/04 08:41:45;;;;;;;8.18;2.15;;;30.30;75.60;;;;;;5040276;28;20037;-74
2023/06/04 08:44:12;;;;;;;6.05;1.70;;;30.60;74.80;;;;;;5039129;28;20095;-75
2023/06/04 08:46:40;;;;;;;5.85;1.65;;;30.80;73.80;;;;;;5039629;28;20087;-75
2023/06/04 08:49:07;;;;;;;7.68;1.88;;;30.40;73.10;;;;;;5038652;28;20033;-74
2023/06/04 08:51:36;;;;;;;5.40;1.10;;;30.30;72.70;;;;;;5038786;28;20033;-75
2023/06/04 08:54:03;;;;;;;4.57;1.67;;;30.40;71.30;;;;;;5038504;28;20035;-75
2023/06/04 08:56:32;;;;;;;5.90;1.50;;;30.30;71.90;;;;;;5037394;28;20025;-74
2023/06/04 08:59:02;;;;;;;4.38;1.88;;;30.70;72.10;;;;;;5035757;28;20068;-75
2023/06/04 09:01:29;;;;;;;4.95;1.83;;;30.50;71.20;;;;;;5035858;28;20045;-74
2023/06/04 09:03:55;;;;;;;5.60;1.60;;;30.80;69.70;;;;;;5047282;28;20060;-74
2023/06/04 09:06:25;;;;;;;4.05;1.92;;;31.40;68.40;;;;;;5055329;28;20450;-75
2023/06/04 09:08:51;;;;;;;3.20;1.60;;;31.70;68.80;;;;;;5055191;28;20036;-72
2023/06/04 09:11:18;;;;;;;3.38;1.52;;;32.40;67.80;;;;;;5041113;28;20032;-74
2023/06/04 09:13:47;;;;;;;7.45;1.63;;;32.50;67.00;;;;;;5055187;28;20438;-74
2023/06/04 09:16:13;;;;;;;3.35;1.27;;;32.30;65.90;;;;;;5044683;28;20026;-73
2023/06/04 09:18:38;;;;;;;6.20;1.63;;;32.30;65.40;;;;;;5035062;28;20426;-74
2023/06/04 09:21:08;;;;;;;3.45;1.40;;;32.70;64.60;;;;;;5035069;28;20034;-74
2023/06/04 09:23:43;;;;;;;4.60;1.60;;;33.20;64.70;;;;;;5035295;28;20029;-75
2023/06/04 09:26:09;;;;;;;7.25;2.33;;;33.40;64.40;;;;;;5035103;28;20026;-72
2023/06/04 09:28:36;;;;;;;5.30;1.77;;;33.50;64.70;;;;;;5046765;28;20059;-75
2023/06/04 09:31:02;;;;;;;4.60;1.77;;;33.60;64.00;;;;;;5055016;28;20126;-75
2023/06/04 09:33:28;;;;;;;5.68;1.80;;;33.70;63.90;;;;;;5054980;28;20088;-74
2023/06/04 09:35:57;;;;;;;2.75;1.42;;;34.20;63.30;;;;;;5036392;28;20032;-75
2023/06/04 09:38:23;;;;;;;5.15;1.83;;;34.30;62.00;;;;;;5055426;28;20021;-76
2023/06/04 09:40:49;;;;;;;2.95;1.40;;;34.10;61.20;;;;;;5054847;28;20484;-74
2023/06/04 09:43:25;;;;;;;5.50;1.52;;;34.20;61.20;;;;;;5036723;28;20082;-74
2023/06/04 09:45:51;;;;;;;3.83;1.77;;;34.30;61.30;;;;;;5054517;28;20469;-75
2023/06/04 09:48:24;;;;;;;6.20;1.73;;;34.20;61.30;;;;;;5054353;28;20163;-75
2023/06/04 09:50:49;;;;;;;3.22;1.77;;;34.10;61.10;;;;;;5039175;28;20026;-75
2023/06/04 09:53:25;;;;;;;6.85;1.70;;;34.30;61.60;;;;;;5034357;28;20470;-73
2023/06/04 09:55:58;;;;;;;4.68;1.70;;;34.70;61.50;;;;;;5034485;28;20028;-73
2023/06/04 09:58:28;;;;;;;6.18;2.08;;;35.00;60.60;;;;;;5034277;28;20396;-72
2023/06/04 10:00:58;;;;;;;4.50;1.92;;;35.40;60.00;;;;;;5039537;28;20073;-73
2023/06/04 10:03:27;;;;;;;3.92;1.30;;;35.30;60.70;;;;;;5045252;28;20044;-76
2023/06/04 10:05:59;;;;;;;7.32;1.45;;;35.80;59.30;;;;;;5034266;28;20068;-73
2023/06/04 10:08:26;;;;;;;4.22;1.35;;;35.90;59.30;;;;;;5045267;28;20052;-71
2023/06/04 10:10:55;;;;;;;6.35;2.03;;;36.00;57.90;;;;;;5034028;28;20079;-73
2023/06/04 10:13:26;;;;;;;4.55;1.75;;;35.90;58.40;;;;;;5045960;28;20501;-71
2023/06/04 10:15:52;;;;;;;4.32;1.85;;;35.80;58.60;;;;;;5054043;28;20021;-71
2023/06/04 10:18:19;;;;;;;6.22;1.98;;;35.70;59.10;;;;;;5049466;28;20468;-74
2023/06/04 10:20:45;;;;;;;3.35;1.77;;;35.70;58.20;;;;;;5038397;28;20076;-73
2023/06/04 10:23:12;;;;;;;5.25;1.77;;;35.90;58.20;;;;;;5033556;28;20037;-72
2023/06/04 10:25:37;;;;;;;5.18;1.80;;;36.20;58.30;;;;;;5040161;28;20056;-72
2023/06/04 10:28:03;;;;;;;3.20;1.73;;;35.90;58.60;;;;;;5053143;28;20057;-75
2023/06/04 10:30:30;;;;;;;3.70;1.52;;;35.70;58.40;;;;;;5053696;28;20056;-73
2023/06/04 10:32:57;;;;;;;5.32;1.58;;;35.40;57.90;;;;;;5053721;28;20067;-73
2023/06/04 10:35:35;;;;;;;3.95;1.52;;;35.40;58.80;;;;;;5054007;28;20029;-72
2023/06/04 10:38:21;;;;;;;3.00;1.40;;;35.40;58.90;;;;;;5051936;28;20033;-72
2023/06/04 10:40:47;;;;;;;2.60;1.75;;;35.40;57.50;;;;;;5053587;28;20025;-73
2023/06/04 10:43:15;;;;;;;3.60;1.58;;;35.00;57.10;;;;;;5041083;28;20040;-72
2023/06/04 10:45:42;;;;;;;3.33;1.48;;;35.10;57.70;;;;;;5042695;28;20025;-71
2023/06/04 10:48:10;;;;;;;6.45;1.95;;;35.20;57.60;;;;;;5041770;28;20388;-72
2023/06/04 10:50:51;;;;;;;3.92;2.28;;;35.20;57.00;;;;;;5045312;28;20469;-75
2023/06/04 10:53:18;;;;;;;;;;;35.50;57.60;;;;;;5026411;28;20036;-74
2023/06/04 10:55:48;;;;;;;7.78;1.70;;;35.70;57.20;;;;;;5036055;28;19908;-72
2023/06/04 10:58:14;;;;;;;4.40;1.85;;;35.60;57.10;;;;;;5051297;28;20424;-72
2023/06/04 11:00:49;;;;;;;4.75;1.77;;;35.30;56.80;;;;;;5033186;28;20022;-72
2023/06/04 11:03:15;;;;;;;4.60;1.52;;;35.00;57.70;;;;;;5045946;28;20048;-72
2023/06/04 11:05:45;;;;;;;6.40;1.92;;;34.90;57.30;;;;;;5053256;28;20054;-72
2023/06/04 11:08:13;;;;;;;5.85;1.77;;;34.90;57.00;;;;;;5055182;28;20039;-74
2023/06/04 11:10:42;;;;;;;5.57;1.92;;;35.00;57.10;;;;;;5051167;28;20025;-72
2023/06/04 11:13:08;;;;;;;3.10;2.05;;;35.00;57.10;;;;;;5051632;28;20650;-72
2023/06/04 11:15:45;;;;;;;5.50;2.08;;;35.00;56.90;;;;;;5028323;28;20116;-74
2023/06/04 11:18:19;;;;;;;5.95;2.10;;;34.90;56.90;;;;;;5052290;28;20283;-71
2023/06/04 11:20:49;;;;;;;5.85;1.73;;;34.90;56.90;;;;;;5047140;28;20052;-74
2023/06/04 11:23:16;;;;;;;7.10;2.17;;;34.90;56.80;;;;;;5032650;28;20374;-72
2023/06/04 11:25:43;;;;;;;4.68;1.98;;;35.10;57.10;;;;;;5052299;28;20025;-72
2023/06/04 11:28:16;;;;;;;5.72;1.80;;;35.50;56.50;;;;;;5051626;28;20032;-72
2023/06/04 11:30:42;;;;;;;3.90;1.83;;;35.90;55.50;;;;;;5043213;28;20049;-72
2023/06/04 11:33:08;;;;;;;2.72;1.55;;;36.00;55.30;;;;;;5052625;28;20044;-74
2023/06/04 11:35:41;;;;;;;4.25;1.83;;;36.00;55.70;;;;;;5055227;28;20423;-74
2023/06/04 11:38:07;;;;;;;3.55;1.60;;;35.80;56.00;;;;;;5072194;28;20097;-71
2023/06/04 11:40:32;;;;;;;4.38;1.77;;;35.60;56.20;;;;;;5054634;28;20458;-72
2023/06/04 11:42:58;;;;;;;3.85;1.77;;;35.60;55.50;;;;;;5072545;28;20049;-72
2023/06/04 11:45:25;;;;;;;2.58;1.40;;;35.70;55.90;;;;;;5072418;28;20043;-72
2023/06/04 11:47:55;;;;;;;4.13;1.98;;;35.60;54.20;;;;;;5071859;28;20093;-74
2023/06/04 11:50:27;;;;;;;5.05;1.65;;;35.30;55.20;;;;;;5055982;28;20025;-75
2023/06/04 11:52:54;;;;;;;4.50;1.75;;;35.40;55.40;;;;;;5064037;28;20036;-72
2023/06/04 11:55:22;;;;;;;3.22;1.75;;;35.90;55.60;;;;;;5066330;28;20024;-71
2023/06/04 11:57:49;;;;;;;3.83;1.90;;;35.90;55.10;;;;;;5072084;28;20035;-74
2023/06/04 12:00:17;;;;;;;7.55;2.50;;;35.50;55.50;;;;;;5069113;28;20094;-72
2023/06/04 12:02:54;;;;;;;5.68;1.92;;;35.40;55.50;;;;;;5072500;28;20040;-76
2023/06/04 12:05:31;;;;;;;4.28;1.88;;;35.20;55.40;;;;;;5071233;28;20055;-72
2023/06/04 12:08:09;;;;;;;4.07;1.90;;;35.20;54.80;;;;;;5060602;28;20114;-73
2023/06/04 12:10:43;;;;;;;6.70;1.75;;;35.00;54.40;;;;;;5068382;28;20399;-72
2023/06/04 12:13:10;;;;;;;2.90;1.75;;;34.90;54.40;;;;;;5064844;28;20489;-72
2023/06/04 12:15:36;;;;;;;4.40;2.30;;;34.90;54.80;;;;;;5061806;28;20025;-73
2023/06/04 12:18:04;;;;;;;5.20;2.00;;;34.90;54.40;;;;;;5070765;28;20032;-73
2023/06/04 12:20:34;;;;;;;7.00;1.85;;;34.80;54.80;;;;;;5055062;28;20411;-71
2023/06/04 12:23:00;;;;;;;5.43;1.83;;;34.60;54.80;;;;;;5067852;28;20568;-72
2023/06/04 12:25:26;;;;;;;6.07;1.83;;;34.80;54.20;;;;;;5070797;28;20115;-71
2023/06/04 12:27:52;;;;;;;4.05;1.98;;;35.10;54.80;;;;;;5071406;28;20051;-71
2023/06/04 12:30:18;;;;;;;4.43;1.52;;;35.50;54.70;;;;;;5065410;28;20080;-75
2023/06/04 12:32:45;;;;;;;4.35;1.83;;;35.60;53.10;;;;;;5052746;28;20063;-72
2023/06/04 12:35:11;;;;;;;5.18;1.75;;;35.30;53.40;;;;;;5042980;28;20089;-72
2023/06/04 12:37:36;;;;;;;9.00;1.95;;;34.80;54.00;;;;;;5042910;28;20032;-72
2023/06/04 12:40:04;;;;;;;4.10;1.60;;;34.20;54.20;;;;;;5052855;28;20099;-72
2023/06/04 12:42:30;;;;;;;6.18;1.85;;;33.60;54.50;;;;;;5054869;28;20045;-75
2023/06/04 12:44:56;;;;;;;3.03;1.65;;;33.20;54.70;;;;;;5054697;28;20048;-72
2023/06/04 12:47:21;;;;;;;4.57;1.90;;;32.90;55.30;;;;;;5055067;28;20489;-76